Pensacola Naval Air Station,Forrest Sherman field Pensacola US
ICAO: KNPA
IATA: NPA
Category: Medium
Scheduled Services: No

Elevation: 28 ft
TransAlt. 18000 ft.

Airport Communications:
APP:120.05
ATIS:26.76
SHERMAN CLNC DEL:134.1
DEP:120.65
SHERMAN GND:121.7
SHERMAN BASE OPS:31.21
PMSV METRO:35.96
SHERMAN TWR:120.7

KNPA Zoom In..

Runways:

(A) RW 01 length 7137 ft width 200 ft
---- / hdg 7

(B) RW 07L length 8002 ft width 200 ft
ILS 109.30 / hdg 70

(C) RW 07R length 8001 ft width 200 ft
---- / hdg 69

(D) RW 19 length 7137 ft width 200 ft
---- / hdg 187

(E) RW 25L length 8001 ft width 200 ft
---- / hdg 249

(F) RW 25R length 8002 ft width 200 ft
---- / hdg 250

Location; KNPA
Day. 26 / Time. 13.40 Zulu
* Altimeter: 29.92
* Temperature: 28° c. 82.4°f.
* Wind from: 070° Speed 07 kn.
Dewpoint: 22° c.
Visibility: 10 Statute Miles.
Clouds: Few 3700 ft.
Clouds: Broken 11000 ft.
Conditions: Light Rain.

KNPA 261340Z AUTO 07007KT 10SM -RA FEW037 BKN110 28/22 A2992 RMK AO2 RAB10 TSB18E34 P0000 T02780222 $


Wind From 070°
Speed 07 kn.

 
 
jpsmedia.com for Web Design SOUNDCLOUD worldairports.se 2018   terms of use